Time;durP1;ratioP1;P1;durP2;ratioP2;P2;SDS_P1;SDS_P2;PMS_P1;PMS_P2;Temp;Humidity;BMP_temperature;BMP_pressure;BME280_temperature;BME280_humidity;BME280_pressure;Samples;Min_cycle;Max_cycle;Signal;HPM_P1;HPM_P2
2023/08/02 00:01:48;;;;;;;3.08;1.80;;;;;;;15.22;100.00;95062.38;5041177;28;24440;-80
2023/08/02 00:04:14;;;;;;;2.55;1.40;;;;;;;15.28;100.00;95060.16;5041492;28;24537;-82
2023/08/02 00:06:41;;;;;;;5.07;2.03;;;;;;;15.21;100.00;95062.53;5043052;28;24432;-81
2023/08/02 00:09:07;;;;;;;4.00;1.67;;;;;;;15.17;100.00;95062.00;5041273;28;24440;-80
2023/08/02 00:11:35;;;;;;;2.65;1.48;;;;;;;15.23;100.00;95061.41;5033594;28;24812;-81
2023/08/02 00:14:01;;;;;;;9.52;1.70;;;;;;;15.16;100.00;95049.91;5041191;28;24443;-81
2023/08/02 00:16:28;;;;;;;3.95;1.67;;;;;;;15.08;100.00;95052.41;5042556;28;24471;-81
2023/08/02 00:18:54;;;;;;;5.05;1.60;;;;;;;15.01;100.00;95041.72;5039069;28;24443;-81
2023/08/02 00:21:21;;;;;;;3.10;1.55;;;;;;;14.95;100.00;95039.69;5043098;28;24442;-81
2023/08/02 00:23:47;;;;;;;3.13;1.60;;;;;;;15.01;100.00;95033.88;5042577;28;24920;-81
2023/08/02 00:26:14;;;;;;;3.67;1.40;;;;;;;15.01;100.00;95020.03;5043383;28;24528;-81
2023/08/02 00:28:42;;;;;;;3.90;1.88;;;;;;;14.94;100.00;95025.00;5041730;28;24819;-81
2023/08/02 00:31:08;;;;;;;3.97;1.52;;;;;;;14.94;100.00;95017.19;5041286;28;24440;-81
2023/08/02 00:33:35;;;;;;;2.40;1.50;;;;;;;14.92;100.00;95007.84;5040686;28;24424;-81
2023/08/02 00:36:01;;;;;;;2.28;1.48;;;;;;;14.92;100.00;95007.84;5040343;28;24471;-81
2023/08/02 00:38:29;;;;;;;3.75;1.83;;;;;;;14.83;100.00;95004.31;5040944;28;24439;-81
2023/08/02 00:41:02;;;;;;;2.47;1.48;;;;;;;14.81;100.00;95001.03;5040622;28;25050;-81
2023/08/02 00:43:28;;;;;;;3.10;1.60;;;;;;;14.80;100.00;95001.19;5040938;28;24443;-82
2023/08/02 00:45:56;;;;;;;1.98;1.55;;;;;;;14.74;100.00;94999.94;5036965;28;24444;-81
2023/08/02 00:48:23;;;;;;;4.65;1.50;;;;;;;14.75;100.00;94993.75;5040891;28;24439;-81
2023/08/02 00:50:49;;;;;;;4.20;1.60;;;;;;;14.87;100.00;94986.59;5040009;28;24443;-81
2023/08/02 00:53:16;;;;;;;4.43;1.50;;;;;;;14.85;100.00;94983.31;5040398;28;24435;-81
2023/08/02 00:55:42;;;;;;;3.40;1.90;;;;;;;14.79;100.00;94991.69;5037270;28;24464;-80
2023/08/02 00:58:09;;;;;;;5.60;1.63;;;;;;;14.73;100.00;94993.91;5032873;28;24443;-81
2023/08/02 01:00:35;;;;;;;3.17;1.60;;;;;;;14.78;100.00;95001.28;5041903;28;25026;-81
2023/08/02 01:03:03;;;;;;;2.85;1.45;;;;;;;14.67;100.00;94998.84;5039885;28;24800;-81
2023/08/02 01:05:39;;;;;;;4.70;1.80;;;;;;;14.69;100.00;95005.56;5037223;28;24431;-80
2023/08/02 01:08:10;;;;;;;2.42;1.60;;;;;;;14.70;100.00;95007.22;5034438;28;24447;-80
2023/08/02 01:10:44;;;;;;;7.55;1.65;;;;;;;14.65;100.00;95009.44;5035638;28;24438;-80
2023/08/02 01:13:15;;;;;;;2.88;1.60;;;;;;;14.75;100.00;95004.19;5040221;28;24438;-80
2023/08/02 01:15:41;;;;;;;3.92;1.40;;;;;;;14.80;100.00;94994.16;5037933;28;24466;-82
2023/08/02 01:18:10;;;;;;;4.90;1.42;;;;;;;14.84;100.00;94982.50;5040111;28;24518;-80
2023/08/02 01:20:38;;;;;;;14.25;1.80;;;;;;;14.86;100.00;94980.56;5035376;28;24439;-81
2023/08/02 01:23:04;;;;;;;4.37;1.70;;;;;;;14.89;100.00;94975.06;5038462;28;24442;-81
2023/08/02 01:25:34;;;;;;;3.70;1.58;;;;;;;14.85;100.00;94981.53;5040532;28;24436;-80
2023/08/02 01:28:05;;;;;;;3.95;1.70;;;;;;;14.70;100.00;94980.31;5040513;28;24440;-81
2023/08/02 01:30:36;;;;;;;7.35;1.90;;;;;;;14.62;100.00;94983.63;5037870;28;24436;-81
2023/08/02 01:33:03;;;;;;;4.15;2.08;;;;;;;14.61;100.00;94987.22;5036111;28;24432;-81
2023/08/02 01:35:31;;;;;;;2.50;1.60;;;;;;;14.58;100.00;94977.06;5041829;28;24472;-80
2023/08/02 01:37:59;;;;;;;1.75;1.38;;;;;;;14.62;100.00;94975.81;5037282;28;24843;-81
2023/08/02 01:40:26;;;;;;;3.03;1.75;;;;;;;14.58;100.00;94974.47;5038650;28;24447;-80
2023/08/02 01:42:52;;;;;;;3.00;1.60;;;;;;;14.51;100.00;94983.78;5044105;28;24436;-80
2023/08/02 01:45:19;;;;;;;2.25;1.90;;;;;;;14.54;100.00;94973.09;5044271;28;24440;-80
2023/08/02 01:47:46;;;;;;;2.25;1.60;;;;;;;14.50;100.00;94961.31;5040479;28;24438;-81
2023/08/02 01:50:12;;;;;;;2.83;1.58;;;;;;;14.49;100.00;94950.03;5035602;28;24531;-81
2023/08/02 01:52:39;;;;;;;2.75;1.83;;;;;;;14.50;100.00;94949.09;5041966;28;24455;-81
2023/08/02 01:55:08;;;;;;;5.30;1.85;;;;;;;14.59;100.00;94950.03;5039120;28;24800;-81
2023/08/02 01:57:34;;;;;;;2.88;1.67;;;;;;;14.69;100.00;94948.25;5036196;28;24452;-80
2023/08/02 02:00:00;;;;;;;5.40;1.58;;;;;;;14.62;100.00;94947.16;5041056;28;24454;-81
2023/08/02 02:02:27;;;;;;;3.10;1.60;;;;;;;14.69;100.00;94950.03;5041605;28;24440;-81
2023/08/02 02:04:53;;;;;;;4.10;1.80;;;;;;;14.76;100.00;94938.06;5039130;28;24452;-81
2023/08/02 02:07:20;;;;;;;7.90;1.63;;;;;;;14.82;100.00;94931.44;5043728;28;24457;-81
2023/08/02 02:09:46;;;;;;;3.85;1.60;;;;;;;14.87;100.00;94927.47;5043006;28;24561;-81
2023/08/02 02:12:14;;;;;;;1.65;1.30;;;;;;;14.86;100.00;94930.19;5042562;28;24432;-81
2023/08/02 02:14:41;;;;;;;2.33;1.60;;;;;;;14.85;100.00;94920.75;5041823;28;25003;-80
2023/08/02 02:17:07;;;;;;;3.83;1.98;;;;;;;14.89;100.00;94912.50;5040875;28;24463;-81
2023/08/02 02:19:34;;;;;;;4.05;1.98;;;;;;;14.84;100.00;94917.31;5042048;28;24442;-81
2023/08/02 02:22:00;;;;;;;2.10;1.50;;;;;;;14.69;100.00;94916.16;5039951;28;24436;-81
2023/08/02 02:24:27;;;;;;;5.18;1.90;;;;;;;14.62;100.00;94915.88;5033879;28;24440;-81
2023/08/02 02:26:53;;;;;;;2.72;1.80;;;;;;;14.66;100.00;94906.00;5038755;28;25050;-80
2023/08/02 02:29:21;;;;;;;2.40;1.65;;;;;;;14.73;100.00;94902.69;5039718;28;24986;-80
2023/08/02 02:31:47;;;;;;;3.13;1.73;;;;;;;14.74;100.00;94890.47;5039037;28;24439;-81
2023/08/02 02:34:14;;;;;;;2.80;1.67;;;;;;;14.70;100.00;94892.53;5038813;28;24455;-81
2023/08/02 02:36:43;;;;;;;3.30;1.67;;;;;;;14.70;100.00;94887.31;5038168;28;24451;-81
2023/08/02 02:39:09;;;;;;;3.42;1.50;;;;;;;14.70;100.00;94889.13;5040116;28;24986;-81
2023/08/02 02:41:36;;;;;;;2.58;1.60;;;;;;;14.74;100.00;94891.28;5036835;28;24436;-81
2023/08/02 02:44:02;;;;;;;3.30;1.60;;;;;;;14.70;100.00;94884.72;5031806;28;24463;-81
2023/08/02 02:46:30;;;;;;;2.80;1.67;;;;;;;14.62;100.00;94889.00;5034707;28;24431;-81
2023/08/02 02:48:57;;;;;;;4.32;1.67;;;;;;;14.63;100.00;94882.81;5031176;28;24444;-81
2023/08/02 02:51:23;;;;;;;4.80;1.75;;;;;;;14.61;100.00;94875.16;5031966;28;24444;-81
2023/08/02 02:53:49;;;;;;;1.48;1.38;;;;;;;14.69;100.00;94877.06;5036899;28;24761;-81
2023/08/02 02:56:16;;;;;;;2.88;1.60;;;;;;;14.75;100.00;94873.84;5035054;28;25054;-82
2023/08/02 02:58:42;;;;;;;2.92;1.85;;;;;;;14.78;100.00;94870.97;5037225;28;24431;-81
2023/08/02 03:01:09;;;;;;;3.00;1.98;;;;;;;14.79;100.00;94864.78;5042421;28;24455;-81
2023/08/02 03:03:37;;;;;;;3.47;1.52;;;;;;;14.75;100.00;94858.22;5042364;28;24495;-81
2023/08/02 03:06:03;;;;;;;3.67;1.93;;;;;;;14.61;100.00;94854.31;5034045;28;25010;-81
2023/08/02 03:08:30;;;;;;;5.10;1.60;;;;;;;14.62;100.00;94857.75;5034519;28;24432;-81
2023/08/02 03:10:56;;;;;;;3.30;1.80;;;;;;;14.62;100.00;94849.91;5036520;28;24426;-81
2023/08/02 03:13:23;;;;;;;4.45;1.65;;;;;;;14.62;100.00;94842.91;5030535;28;24436;-81
2023/08/02 03:15:50;;;;;;;3.85;1.75;;;;;;;14.63;100.00;94847.16;5034154;28;24527;-81
2023/08/02 03:18:16;;;;;;;3.17;1.50;;;;;;;14.50;100.00;94849.28;5031500;28;24444;-81
2023/08/02 03:20:44;;;;;;;4.05;2.05;;;;;;;14.44;100.00;94844.59;5032967;28;24428;-80
2023/08/02 03:23:11;;;;;;;4.90;1.73;;;;;;;14.48;100.00;94845.97;5035457;28;25193;-81
2023/08/02 03:25:38;;;;;;;3.10;1.80;;;;;;;14.41;100.00;94837.06;5035469;28;25072;-81
2023/08/02 03:28:04;;;;;;;3.73;1.80;;;;;;;14.36;100.00;94836.69;5031945;28;24986;-81
2023/08/02 03:30:31;;;;;;;3.63;1.60;;;;;;;14.35;100.00;94840.22;5035877;28;24432;-81
2023/08/02 03:32:57;;;;;;;6.38;1.80;;;;;;;14.29;100.00;94839.03;5033407;28;24447;-80
2023/08/02 03:35:24;;;;;;;3.35;1.77;;;;;;;14.32;100.00;94830.13;5039227;28;24451;-81
2023/08/02 03:37:52;;;;;;;3.17;1.87;;;;;;;14.37;100.00;94833.91;5036121;28;25386;-80
2023/08/02 03:40:19;;;;;;;3.20;1.50;;;;;;;14.39;100.00;94831.19;5040367;28;25046;-79
2023/08/02 03:42:45;;;;;;;4.32;1.80;;;;;;;14.36;100.00;94832.28;5040150;28;24428;-80
2023/08/02 03:45:12;;;;;;;3.65;1.67;;;;;;;14.37;100.00;94822.69;5044129;28;24454;-79
2023/08/02 03:47:38;;;;;;;5.47;1.80;;;;;;;14.33;100.00;94816.94;5040647;28;24435;-79
2023/08/02 03:50:05;;;;;;;3.47;2.03;;;;;;;14.41;100.00;94796.19;5035550;28;24473;-79
2023/08/02 03:52:32;;;;;;;4.28;1.90;;;;;;;14.51;100.00;94791.81;5039348;28;24451;-79
2023/08/02 03:55:00;;;;;;;3.88;1.90;;;;;;;14.46;100.00;94790.56;5044711;28;24456;-80
2023/08/02 03:57:26;;;;;;;5.07;1.80;;;;;;;14.39;100.00;94782.53;5039016;28;24459;-81
2023/08/02 03:59:52;;;;;;;2.50;1.67;;;;;;;14.42;100.00;94779.59;5041411;28;24456;-80
2023/08/02 04:02:19;;;;;;;3.22;1.60;;;;;;;14.41;100.00;94779.75;5042976;28;24450;-80
2023/08/02 04:04:45;;;;;;;4.18;1.70;;;;;;;14.42;100.00;94774.38;5041431;28;24444;-81
2023/08/02 04:07:12;;;;;;;3.60;1.80;;;;;;;14.35;100.00;94769.91;5036534;28;24436;-80
2023/08/02 04:09:39;;;;;;;3.60;1.90;;;;;;;14.33;100.00;94764.03;5032267;28;24440;-81
2023/08/02 04:12:08;;;;;;;4.47;1.98;;;;;;;14.26;100.00;94762.00;5034325;28;24439;-80
2023/08/02 04:14:34;;;;;;;2.88;1.80;;;;;;;14.22;100.00;94771.06;5032345;28;24451;-81
2023/08/02 04:17:01;;;;;;;2.22;1.85;;;;;;;14.31;100.00;94765.94;5034935;28;24459;-81
2023/08/02 04:19:28;;;;;;;5.32;1.90;;;;;;;14.31;100.00;94755.53;5036431;28;24530;-80
2023/08/02 04:21:55;;;;;;;4.25;1.92;;;;;;;14.36;100.00;94753.34;5037321;28;24477;-80
2023/08/02 04:24:21;;;;;;;3.07;1.60;;;;;;;14.31;100.00;94747.72;5035772;28;24511;-80
2023/08/02 04:26:48;;;;;;;2.83;1.83;;;;;;;14.17;100.00;94738.59;5034164;28;24436;-79
2023/08/02 04:29:16;;;;;;;5.10;2.33;;;;;;;14.07;100.00;94732.63;5035255;28;24800;-81
2023/08/02 04:31:42;;;;;;;2.25;1.70;;;;;;;14.04;100.00;94728.50;5034572;28;24438;-82
2023/08/02 04:34:08;;;;;;;2.88;1.80;;;;;;;13.96;100.00;94723.19;5034983;28;24446;-81
2023/08/02 04:36:35;;;;;;;4.57;2.03;;;;;;;13.98;100.00;94723.88;5033732;28;24455;-81
2023/08/02 04:39:03;;;;;;;4.90;2.00;;;;;;;14.00;100.00;94727.16;5035301;28;24443;-80
2023/08/02 04:41:30;;;;;;;5.15;2.20;;;;;;;13.94;100.00;94718.16;5033530;28;24475;-80
2023/08/02 04:43:56;;;;;;;3.03;1.90;;;;;;;14.11;100.00;94706.13;5029777;28;24828;-81
2023/08/02 04:46:27;;;;;;;3.90;2.00;;;;;;;14.07;100.00;94706.56;5033435;28;24428;-81
2023/08/02 04:48:53;;;;;;;3.63;2.10;;;;;;;14.06;100.00;94707.53;5032513;28;24490;-80
2023/08/02 04:51:20;;;;;;;3.80;2.15;;;;;;;14.07;100.00;94701.38;5022877;28;24435;-78
2023/08/02 04:53:47;;;;;;;3.20;2.20;;;;;;;14.04;100.00;94699.88;5031535;28;24436;-79
2023/08/02 04:56:13;;;;;;;2.85;2.03;;;;;;;14.10;100.00;94696.69;5024460;28;25167;-80
2023/08/02 04:58:40;;;;;;;4.28;2.15;;;;;;;14.10;100.00;94701.91;5028179;28;24815;-79
2023/08/02 05:01:07;;;;;;;3.90;2.30;;;;;;;14.09;100.00;94702.03;5031495;28;24520;-80
2023/08/02 05:03:35;;;;;;;2.85;2.22;;;;;;;14.08;100.00;94700.41;5029968;28;25021;-79
2023/08/02 05:06:02;;;;;;;4.30;2.25;;;;;;;14.02;100.00;94697.41;5028166;28;24835;-80
2023/08/02 05:08:31;;;;;;;3.63;2.15;;;;;;;14.10;100.00;94683.69;5029194;28;24432;-79
2023/08/02 05:10:57;;;;;;;2.93;2.07;;;;;;;14.11;100.00;94681.88;5031035;28;24542;-80
2023/08/02 05:13:24;;;;;;;3.50;2.23;;;;;;;14.14;100.00;94676.41;5031967;28;24504;-80
2023/08/02 05:15:51;;;;;;;4.43;2.03;;;;;;;14.16;100.00;94683.06;5030934;28;24444;-79
2023/08/02 05:18:17;;;;;;;3.40;2.30;;;;;;;14.16;100.00;94677.88;5026096;28;24479;-80
2023/08/02 05:20:45;;;;;;;3.35;1.83;;;;;;;14.21;100.00;94673.06;5029664;28;24810;-80
2023/08/02 05:23:12;;;;;;;2.50;2.00;;;;;;;14.22;100.00;94672.09;5028112;28;24439;-80
2023/08/02 05:25:39;;;;;;;4.53;2.10;;;;;;;14.18;100.00;94669.94;5032890;28;24439;-79
2023/08/02 05:28:06;;;;;;;4.93;2.55;;;;;;;14.08;100.00;94672.56;5032022;28;25021;-80
2023/08/02 05:30:33;;;;;;;5.50;2.70;;;;;;;14.21;100.00;94667.03;5035498;28;24822;-78
2023/08/02 05:33:00;;;;;;;3.00;2.13;;;;;;;14.24;100.00;94678.00;5030123;28;24439;-81
2023/08/02 05:35:26;;;;;;;6.10;2.50;;;;;;;14.22;100.00;94668.69;5028903;28;24443;-80
2023/08/02 05:37:54;;;;;;;7.43;2.50;;;;;;;14.16;100.00;94659.66;5032189;28;24474;-81
2023/08/02 05:40:21;;;;;;;6.15;2.50;;;;;;;14.15;100.00;94647.59;5032998;28;24812;-80
2023/08/02 05:42:49;;;;;;;6.05;2.50;;;;;;;14.13;100.00;94646.94;5033148;28;24450;-80
2023/08/02 05:45:16;;;;;;;5.57;2.40;;;;;;;14.10;100.00;94638.59;5029877;28;24443;-80
2023/08/02 05:47:42;;;;;;;4.13;2.50;;;;;;;14.26;100.00;94638.78;5032181;28;24805;-80
2023/08/02 05:50:09;;;;;;;4.97;2.40;;;;;;;14.28;100.00;94639.47;5035704;28;24832;-81
2023/08/02 05:52:36;;;;;;;3.92;2.47;;;;;;;14.21;100.00;94643.59;5034093;28;24446;-80
2023/08/02 05:55:04;;;;;;;3.40;2.42;;;;;;;14.18;100.00;94641.28;5025995;28;24440;-81
2023/08/02 05:57:30;;;;;;;2.78;2.28;;;;;;;14.09;100.00;94645.59;5033828;28;24448;-80
2023/08/02 05:59:57;;;;;;;2.63;1.95;;;;;;;14.07;100.00;94650.13;5032172;28;24455;-81
2023/08/02 06:02:23;;;;;;;4.43;2.40;;;;;;;14.03;100.00;94648.78;5031245;28;24439;-78
2023/08/02 06:04:50;;;;;;;5.38;2.35;;;;;;;14.05;100.00;94631.19;5027262;28;25323;-78
2023/08/02 06:07:16;;;;;;;5.22;2.55;;;;;;;14.10;100.00;94628.19;5024772;28;24451;-80
2023/08/02 06:09:43;;;;;;;4.05;2.85;;;;;;;14.15;100.00;94620.75;5030317;28;24513;-80
2023/08/02 06:12:11;;;;;;;8.68;2.67;;;;;;;14.07;100.00;94616.28;5025783;28;24452;-79
2023/08/02 06:14:37;;;;;;;3.67;2.47;;;;;;;14.20;100.00;94615.91;5021841;28;25021;-79
2023/08/02 06:17:04;;;;;;;5.57;2.75;;;;;;;14.19;100.00;94612.50;5031846;28;24820;-80
2023/08/02 06:19:31;;;;;;;4.50;2.63;;;;;;;14.28;100.00;94601.22;5036288;28;24451;-79
2023/08/02 06:21:57;;;;;;;4.28;2.60;;;;;;;14.37;100.00;94598.69;5033057;28;24444;-81
2023/08/02 06:24:24;;;;;;;4.40;2.60;;;;;;;14.42;100.00;94592.03;5031289;28;24459;-79
2023/08/02 06:26:50;;;;;;;4.05;2.60;;;;;;;14.44;100.00;94590.13;5036146;28;24451;-81
2023/08/02 06:29:18;;;;;;;4.30;2.50;;;;;;;14.39;100.00;94589.75;5027570;28;24446;-82
2023/08/02 06:31:44;;;;;;;10.02;6.45;;;;;;;14.44;100.00;94591.91;5028336;28;24462;-77
2023/08/02 06:34:11;;;;;;;4.60;2.50;;;;;;;14.51;100.00;94588.59;5024437;28;24440;-77
2023/08/02 06:36:38;;;;;;;3.55;2.42;;;;;;;14.62;100.00;94578.91;5023141;28;24869;-76
2023/08/02 06:39:05;;;;;;;4.43;2.90;;;;;;;14.64;100.00;94569.97;5027340;28;24555;-77
2023/08/02 06:41:31;;;;;;;3.60;2.58;;;;;;;14.76;100.00;94576.59;5028380;28;24451;-82
2023/08/02 06:43:57;;;;;;;4.15;2.78;;;;;;;14.69;100.00;94565.13;5027562;28;24998;-81
2023/08/02 06:46:29;;;;;;;3.88;2.88;;;;;;;14.67;100.00;94563.63;5030009;28;24436;-82
2023/08/02 06:48:56;;;;;;;4.35;2.70;;;;;;;14.56;100.00;94569.09;5027900;28;24471;-81
2023/08/02 06:51:22;;;;;;;3.67;3.03;;;;;;;14.54;100.00;94565.81;5031227;28;24439;-79
2023/08/02 06:53:48;;;;;;;3.95;2.85;;;;;;;14.56;100.00;94561.28;5027335;28;24436;-79
2023/08/02 06:56:16;;;;;;;3.58;2.70;;;;;;;14.62;100.00;94551.06;5032179;28;24439;-81
2023/08/02 06:58:44;;;;;;;3.92;3.10;;;;;;;14.61;100.00;94554.66;5027577;28;25007;-80
2023/08/02 07:01:14;;;;;;;8.73;3.30;;;;;;;14.61;100.00;94554.66;5030635;28;24435;-81
2023/08/02 07:03:42;;;;;;;5.27;3.30;;;;;;;14.67;100.00;94558.44;5030074;28;24443;-83
2023/08/02 07:06:09;;;;;;;2.92;2.70;;;;;;;14.70;100.00;94547.72;5029417;28;25013;-81
2023/08/02 07:08:36;;;;;;;4.90;3.30;;;;;;;14.74;100.00;94543.81;5030198;28;24440;-82
2023/08/02 07:11:03;;;;;;;3.47;2.83;;;;;;;14.84;100.00;94547.16;5040367;28;24943;-82
2023/08/02 07:13:30;;;;;;;6.70;3.20;;;;;;;14.87;100.00;94546.88;5038008;28;24440;-80
2023/08/02 07:15:57;;;;;;;3.95;2.80;;;;;;;14.94;100.00;94540.06;5033370;28;24455;-80
2023/08/02 07:18:23;;;;;;;4.32;3.08;;;;;;;15.07;100.00;94534.44;5028005;28;24844;-80
2023/08/02 07:20:51;;;;;;;3.85;2.90;;;;;;;14.95;100.00;94533.06;5029886;28;25044;-78
2023/08/02 07:23:18;;;;;;;7.18;3.63;;;;;;;14.90;100.00;94527.47;5032622;28;24448;-81
2023/08/02 07:25:44;;;;;;;5.20;3.00;;;;;;;15.00;100.00;94530.81;5032092;28;24443;-81
2023/08/02 07:28:10;;;;;;;4.43;3.50;;;;;;;15.05;100.00;94520.72;5034421;28;24432;-81
2023/08/02 07:30:37;;;;;;;6.45;3.20;;;;;;;14.95;100.00;94520.03;5031948;28;24446;-82
2023/08/02 07:33:04;;;;;;;3.47;2.97;;;;;;;15.07;100.00;94518.78;5035240;28;24447;-82
2023/08/02 07:35:30;;;;;;;3.90;3.35;;;;;;;15.07;100.00;94512.75;5033680;28;24452;-82
2023/08/02 07:37:58;;;;;;;4.10;3.63;;;;;;;15.03;100.00;94496.63;5034704;28;24455;-81
2023/08/02 07:40:24;;;;;;;4.03;3.10;;;;;;;15.07;100.00;94510.16;5033531;28;25001;-82
2023/08/02 07:42:51;;;;;;;5.07;3.25;;;;;;;15.04;100.00;94506.06;5028648;28;24995;-79
2023/08/02 07:45:17;;;;;;;5.80;3.60;;;;;;;15.15;100.00;94508.41;5034128;28;25021;-79
2023/08/02 07:47:44;;;;;;;5.30;3.53;;;;;;;15.21;100.00;94493.94;5031004;28;24435;-79
2023/08/02 07:50:10;;;;;;;5.30;3.50;;;;;;;15.31;100.00;94496.41;5034904;28;24439;-77
2023/08/02 07:52:37;;;;;;;5.63;3.47;;;;;;;15.40;100.00;94490.28;5034925;28;24444;-79
2023/08/02 07:55:05;;;;;;;4.13;3.72;;;;;;;15.55;100.00;94485.28;5033998;28;24975;-79
2023/08/02 07:57:33;;;;;;;6.10;3.85;;;;;;;15.55;100.00;94490.50;5030150;28;24463;-79
2023/08/02 08:00:00;;;;;;;5.47;3.90;;;;;;;15.52;100.00;94494.22;5034339;28;24440;-79
2023/08/02 08:02:27;;;;;;;5.22;3.95;;;;;;;15.65;100.00;94486.81;5032500;28;24444;-78
2023/08/02 08:04:54;;;;;;;5.30;4.30;;;;;;;15.64;100.00;94485.13;5033597;28;24439;-79
2023/08/02 08:07:21;;;;;;;4.65;3.60;;;;;;;15.61;100.00;94475.03;5033681;28;24979;-78
2023/08/02 08:09:50;;;;;;;4.60;3.60;;;;;;;15.59;100.00;94471.75;5030927;28;24440;-78
2023/08/02 08:12:18;;;;;;;5.70;4.00;;;;;;;15.77;100.00;94476.06;5033592;28;24796;-79
2023/08/02 08:14:45;;;;;;;6.47;4.10;;;;;;;15.67;100.00;94468.38;5032317;28;24820;-79
2023/08/02 08:17:11;;;;;;;5.25;3.85;;;;;;;15.62;100.00;94458.38;5034279;28;24440;-79
2023/08/02 08:19:37;;;;;;;5.47;4.38;;;;;;;15.68;100.00;94468.22;5033801;28;24562;-79
2023/08/02 08:22:05;;;;;;;4.03;3.67;;;;;;;15.73;100.00;94460.72;5031359;28;24471;-80
2023/08/02 08:24:31;;;;;;;6.88;4.20;;;;;;;15.61;100.00;94456.75;5029656;28;24501;-80
2023/08/02 08:26:57;;;;;;;6.60;4.07;;;;;;;15.83;100.00;94467.59;5034385;28;24440;-78
2023/08/02 08:29:27;;;;;;;4.07;3.67;;;;;;;15.71;100.00;94454.84;5031399;28;24431;-82
2023/08/02 08:31:54;;;;;;;5.00;3.75;;;;;;;15.83;100.00;94455.34;5026675;28;24440;-82
2023/08/02 08:34:20;;;;;;;4.37;3.77;;;;;;;15.81;100.00;94459.94;5034247;28;24503;-79
2023/08/02 08:36:47;;;;;;;4.80;3.80;;;;;;;15.94;100.00;94452.47;5034276;28;24428;-77
2023/08/02 08:39:14;;;;;;;4.88;3.55;;;;;;;15.89;100.00;94456.50;5033607;28;24466;-78
2023/08/02 08:41:40;;;;;;;5.50;3.67;;;;;;;15.84;100.00;94449.16;5033427;28;24788;-78
2023/08/02 08:44:06;;;;;;;4.57;3.63;;;;;;;15.85;100.00;94453.41;5029255;28;24986;-77
2023/08/02 08:46:35;;;;;;;4.95;3.70;;;;;;;15.82;100.00;94447.69;5027441;28;24463;-77
2023/08/02 08:49:03;;;;;;;5.30;3.17;;;;;;;15.87;100.00;94443.63;5027628;28;24436;-77
2023/08/02 08:51:33;;;;;;;3.05;2.75;;;;;;;15.90;100.00;94443.28;5031911;28;24439;-77
2023/08/02 08:54:05;;;;;;;3.85;2.80;;;;;;;15.95;100.00;94446.25;5031535;28;24797;-77
2023/08/02 08:56:35;;;;;;;4.72;2.95;;;;;;;15.94;100.00;94443.78;5028372;28;24424;-77
2023/08/02 08:59:03;;;;;;;3.08;2.78;;;;;;;16.02;100.00;94445.59;5029918;28;25015;-77
2023/08/02 09:01:30;;;;;;;3.35;2.60;;;;;;;16.11;100.00;94440.22;5027057;28;25218;-78
2023/08/02 09:03:58;;;;;;;3.35;2.63;;;;;;;16.18;100.00;94441.19;5031567;28;24450;-78
2023/08/02 09:06:25;;;;;;;4.85;2.83;;;;;;;16.24;100.00;94438.91;5030294;28;24437;-78
2023/08/02 09:08:51;;;;;;;4.32;2.65;;;;;;;16.29;100.00;94434.03;5031018;28;24435;-78
2023/08/02 09:11:18;;;;;;;3.60;2.63;;;;;;;16.40;100.00;94426.66;5029744;28;24439;-77
2023/08/02 09:13:44;;;;;;;3.25;2.70;;;;;;;16.51;100.00;94415.06;5029128;28;24428;-77
2023/08/02 09:16:12;;;;;;;3.17;2.88;;;;;;;16.63;100.00;94420.75;5031363;28;24432;-77
2023/08/02 09:18:40;;;;;;;4.82;3.08;;;;;;;16.72;100.00;94414.53;5031303;28;24463;-78
2023/08/02 09:21:11;;;;;;;3.20;2.90;;;;;;;16.68;100.00;94415.84;5030264;28;24440;-77
2023/08/02 09:23:37;;;;;;;4.50;3.22;;;;;;;16.73;100.00;94415.34;5021065;28;24440;-78
2023/08/02 09:26:11;;;;;;;4.85;3.00;;;;;;;16.75;100.00;94416.03;5035135;28;24432;-80
2023/08/02 09:28:38;;;;;;;3.50;3.20;;;;;;;16.78;100.00;94406.03;5029389;28;24455;-79
2023/08/02 09:31:18;;;;;;;5.38;3.42;;;;;;;16.84;100.00;94402.78;5031566;28;24471;-79
2023/08/02 09:33:52;;;;;;;6.93;3.17;;;;;;;16.89;100.00;94397.84;5034750;28;24428;-78
2023/08/02 09:36:27;;;;;;;5.97;3.65;;;;;;;16.95;100.00;94385.09;5018124;28;24439;-77
2023/08/02 09:38:56;;;;;;;4.45;3.67;;;;;;;17.06;100.00;94388.16;5029360;28;24454;-77
2023/08/02 09:41:23;;;;;;;6.32;3.95;;;;;;;17.05;100.00;94390.94;5030579;28;24503;-79
2023/08/02 09:43:51;;;;;;;4.18;3.47;;;;;;;17.14;100.00;94392.53;5035492;28;24494;-79
2023/08/02 09:46:26;;;;;;;4.28;3.47;;;;;;;17.20;100.00;94386.59;5032661;28;24482;-78
2023/08/02 09:48:53;;;;;;;4.82;3.47;;;;;;;17.17;100.00;94384.34;5028254;28;24451;-76
2023/08/02 09:51:20;;;;;;;4.40;3.25;;;;;;;17.20;100.00;94394.44;5030966;28;24526;-77
2023/08/02 09:53:57;;;;;;;4.53;3.05;;;;;;;17.16;100.00;94387.94;5030311;28;24439;-77
2023/08/02 09:56:25;;;;;;;3.63;3.30;;;;;;;17.24;100.00;94384.47;5031009;28;24436;-78
2023/08/02 09:58:55;;;;;;;4.13;3.60;;;;;;;17.27;100.00;94382.31;5033112;28;24560;-77
2023/08/02 10:01:23;;;;;;;5.15;3.55;;;;;;;17.18;100.00;94386.78;5028418;28;24448;-77
2023/08/02 10:03:55;;;;;;;7.18;3.13;;;;;;;17.18;100.00;94370.28;5030287;28;24470;-78
2023/08/02 10:06:23;;;;;;;4.57;3.43;;;;;;;17.15;100.00;94355.72;5030810;28;24496;-77
2023/08/02 10:08:51;;;;;;;4.53;3.33;;;;;;;17.10;100.00;94350.22;5030787;28;24429;-77
2023/08/02 10:11:20;;;;;;;14.23;3.28;;;;;;;17.08;100.00;94340.88;5030468;28;24999;-77
2023/08/02 10:13:48;;;;;;;3.67;2.87;;;;;;;17.10;100.00;94347.59;5026567;28;24447;-77
2023/08/02 10:16:16;;;;;;;4.10;3.50;;;;;;;17.05;100.00;94342.03;5030527;28;24989;-77
2023/08/02 10:18:44;;;;;;;5.67;3.43;;;;;;;17.17;100.00;94338.06;5028311;28;24908;-76
2023/08/02 10:21:13;;;;;;;4.85;3.10;;;;;;;17.14;100.00;94343.66;5030206;28;24424;-77
2023/08/02 10:23:39;;;;;;;4.43;3.30;;;;;;;17.09;100.00;94340.75;5027623;28;24450;-76
2023/08/02 10:26:06;;;;;;;3.90;3.50;;;;;;;17.10;100.00;94331.91;5030657;28;24443;-77
2023/08/02 10:28:35;;;;;;;4.03;3.13;;;;;;;17.20;100.00;94318.59;5031061;28;24877;-77
2023/08/02 10:31:07;;;;;;;5.10;3.22;;;;;;;17.46;100.00;94327.91;5022283;28;24442;-77
2023/08/02 10:33:33;;;;;;;5.13;3.05;;;;;;;17.70;100.00;94330.38;5026794;28;24587;-77
2023/08/02 10:36:02;;;;;;;4.78;3.35;;;;;;;17.83;100.00;94348.16;5029630;28;24444;-77
2023/08/02 10:38:47;;;;;;;3.60;3.17;;;;;;;17.88;100.00;94351.06;5028225;28;24455;-77
2023/08/02 10:41:15;;;;;;;4.40;3.15;;;;;;;17.85;100.00;94339.13;5027212;28;24803;-76
2023/08/02 10:44:11;;;;;;;5.55;3.72;;;;;;;17.96;100.00;94324.00;5030170;28;24521;-77
2023/08/02 10:46:37;;;;;;;4.68;3.58;;;;;;;17.89;100.00;94316.84;5031322;28;24431;-77
2023/08/02 10:49:43;;;;;;;6.07;3.50;;;;;;;18.04;100.00;94311.63;5030845;28;24435;-77
2023/08/02 10:52:23;;;;;;;5.25;3.67;;;;;;;18.03;100.00;94310.00;5023904;28;24443;-77
2023/08/02 10:55:08;;;;;;;4.40;3.50;;;;;;;18.01;100.00;94311.97;5029041;28;24787;-77
2023/08/02 10:57:34;;;;;;;5.50;3.72;;;;;;;17.97;100.00;94304.66;5028778;28;25307;-77
2023/08/02 11:00:14;;;;;;;5.28;3.95;;;;;;;18.01;100.00;94311.97;5029353;28;24970;-77
2023/08/02 11:02:46;;;;;;;5.43;3.58;;;;;;;17.99;100.00;94297.47;5031064;28;24443;-78
2023/08/02 11:05:13;;;;;;;4.68;3.58;;;;;;;18.03;100.00;94302.16;5042228;28;24498;-78
2023/08/02 11:07:39;;;;;;;4.65;3.58;;;;;;;18.11;100.00;94296.03;5041411;28;25238;-78
2023/08/02 11:10:06;;;;;;;8.07;3.88;;;;;;;18.16;100.00;94285.81;5032007;28;24804;-77
2023/08/02 11:12:34;;;;;;;6.93;3.87;;;;;;;18.21;100.00;94283.50;5031398;28;24439;-77
2023/08/02 11:15:02;;;;;;;4.60;3.80;;;;;;;18.36;100.00;94281.69;5031652;28;24436;-77
2023/08/02 11:17:29;;;;;;;5.70;4.00;;;;;;;18.73;100.00;94276.56;5034078;28;24978;-80
2023/08/02 11:19:56;;;;;;;6.72;4.18;;;;;;;19.04;100.00;94273.69;5035011;28;24847;-77
2023/08/02 11:22:22;;;;;;;7.25;4.18;;;;;;;19.42;100.00;94276.91;5029492;28;24447;-77
2023/08/02 11:24:51;;;;;;;4.95;3.85;;;;;;;19.63;100.00;94280.59;5032982;28;24444;-77
2023/08/02 11:27:19;;;;;;;3.97;3.63;;;;;;;19.91;100.00;94288.50;5024398;28;25393;-77